Terminal Aerodrome Forecast
Issued by NWS

Home | Current Version | Previous Version | Text Only | Print | Product List | Glossary On
Versions: 1 2 3 4 5 6 7 8 9 10 11 12 13 14 15 16
402
FTUS44 KEWX 161120
TAFSSF
TAF
KSSF 161120Z 1612/1712 16007KT P6SM BKN020
     FM161600 15012G20KT P6SM SCT040 BKN250
     FM170700 15008KT P6SM BKN015=

USA.gov is the U.S. government's official web portal to all federal, state and local government web resources and services.